Time;durP1;ratioP1;P1;durP2;ratioP2;P2;SDS_P1;SDS_P2;PMS_P1;PMS_P2;Temp;Humidity;BMP_temperature;BMP_pressure;BME280_temperature;BME280_humidity;BME280_pressure;Samples;Min_cycle;Max_cycle;Signal;HPM_P1;HPM_P2
2022/09/22 00:01:07;;;;;;;6.20;4.70;;;9.00;99.90;;;;;;4975919;28;20063;-65
2022/09/22 00:03:37;;;;;;;7.80;4.97;;;8.90;99.90;;;;;;4958269;28;20109;-64
2022/09/22 00:06:06;;;;;;;8.43;5.72;;;8.90;99.90;;;;;;4958959;28;20525;-64
2022/09/22 00:08:35;;;;;;;7.70;5.38;;;8.90;99.90;;;;;;4975729;28;20062;-64
2022/09/22 00:11:05;;;;;;;8.88;5.75;;;8.90;99.90;;;;;;4975923;28;20054;-64
2022/09/22 00:13:33;;;;;;;8.70;5.85;;;8.90;99.90;;;;;;4976349;28;20502;-65
2022/09/22 00:16:00;;;;;;;11.07;6.50;;;8.90;99.90;;;;;;4975292;28;20062;-65
2022/09/22 00:18:28;;;;;;;10.23;6.03;;;8.90;99.90;;;;;;4958891;28;20058;-65
2022/09/22 00:20:56;;;;;;;9.48;5.70;;;8.80;99.90;;;;;;4976407;28;20153;-65
2022/09/22 00:23:27;;;;;;;13.10;5.53;;;8.80;99.90;;;;;;4975635;28;20054;-65
2022/09/22 00:25:54;;;;;;;10.13;5.97;;;8.80;99.90;;;;;;4958659;28;20058;-64
2022/09/22 00:28:24;;;;;;;9.65;5.45;;;8.70;99.90;;;;;;4975714;28;20055;-65
2022/09/22 00:30:51;;;;;;;10.85;5.03;;;8.70;99.90;;;;;;4975488;28;20046;-65
2022/09/22 00:33:18;;;;;;;6.50;4.80;;;8.70;99.90;;;;;;4976030;28;20553;-65
2022/09/22 00:35:45;;;;;;;11.07;4.50;;;8.60;99.90;;;;;;4957734;28;20050;-65
2022/09/22 00:38:13;;;;;;;7.85;4.13;;;8.60;99.90;;;;;;4958486;28;20067;-65
2022/09/22 00:40:40;;;;;;;6.65;4.10;;;8.50;99.90;;;;;;4975789;28;20517;-64
2022/09/22 00:43:18;;;;;;;8.48;4.65;;;8.50;99.90;;;;;;4958220;28;20129;-65
2022/09/22 00:45:48;;;;;;;8.48;4.10;;;8.50;99.90;;;;;;4958400;28;20065;-65
2022/09/22 00:48:16;;;;;;;5.93;3.60;;;8.50;99.90;;;;;;4975800;28;20058;-65
2022/09/22 00:50:43;;;;;;;6.72;4.30;;;8.50;99.90;;;;;;4975021;28;20291;-64
2022/09/22 00:53:14;;;;;;;8.00;3.92;;;8.50;99.90;;;;;;4958365;28;20093;-65
2022/09/22 00:55:43;;;;;;;;;;;8.40;99.90;;;;;;4976135;28;20159;-64
2022/09/22 00:58:13;;;;;;;5.75;3.78;;;8.40;99.90;;;;;;4957978;28;20385;-64
2022/09/22 01:00:40;;;;;;;9.32;4.07;;;8.40;99.90;;;;;;4975740;28;20074;-64
2022/09/22 01:03:12;;;;;;;7.90;3.88;;;8.30;99.90;;;;;;4975275;28;20113;-64
2022/09/22 01:05:40;;;;;;;7.43;4.45;;;8.30;99.90;;;;;;4956899;28;20054;-65
2022/09/22 01:08:07;;;;;;;9.48;4.03;;;8.30;99.90;;;;;;4957788;28;20538;-64
2022/09/22 01:10:36;;;;;;;9.05;4.05;;;8.20;99.90;;;;;;4957069;28;20051;-63
2022/09/22 01:13:22;;;;;;;8.00;4.03;;;8.10;99.90;;;;;;4958279;28;20440;-64
2022/09/22 01:16:02;;;;;;;6.47;4.22;;;8.10;99.90;;;;;;4958255;28;20494;-65
2022/09/22 01:18:49;;;;;;;8.40;3.80;;;8.10;99.90;;;;;;4957442;28;20118;-64
2022/09/22 01:21:33;;;;;;;9.82;4.03;;;8.00;99.90;;;;;;4957524;28;20051;-64
2022/09/22 01:24:37;;;;;;;6.03;4.30;;;8.00;99.90;;;;;;4954876;29;20055;-64
2022/09/22 01:27:31;;;;;;;6.70;4.40;;;8.00;99.90;;;;;;4938051;29;20077;-64
2022/09/22 01:30:22;;;;;;;9.40;4.05;;;8.00;99.90;;;;;;4939104;29;20455;-63
2022/09/22 01:33:02;;;;;;;8.18;4.53;;;8.00;99.90;;;;;;4969294;28;20054;-64
2022/09/22 01:35:35;;;;;;;5.90;4.10;;;8.00;99.90;;;;;;4974800;28;20458;-63
2022/09/22 01:38:09;;;;;;;8.23;4.55;;;8.00;99.90;;;;;;4974951;28;20411;-63
2022/09/22 01:40:42;;;;;;;9.95;4.20;;;7.90;99.90;;;;;;4955863;28;20059;-64
2022/09/22 01:43:17;;;;;;;8.15;4.30;;;7.90;99.90;;;;;;4973575;28;20055;-64
2022/09/22 01:45:48;;;;;;;6.05;3.83;;;7.90;99.90;;;;;;4973767;28;20057;-65
2022/09/22 01:48:20;;;;;;;8.98;3.92;;;7.90;99.90;;;;;;4974244;28;20129;-65
2022/09/22 01:50:52;;;;;;;6.32;4.05;;;7.90;99.90;;;;;;4957183;28;20047;-66
2022/09/22 01:53:23;;;;;;;7.63;4.70;;;7.90;99.90;;;;;;4974272;28;20050;-65
2022/09/22 01:55:54;;;;;;;7.03;4.18;;;7.90;99.90;;;;;;4957296;28;20391;-63
2022/09/22 01:58:26;;;;;;;11.05;4.70;;;7.90;99.90;;;;;;4974416;28;20462;-65
2022/09/22 02:00:59;;;;;;;7.13;4.35;;;7.90;99.90;;;;;;4973827;28;20557;-63
2022/09/22 02:03:35;;;;;;;8.05;4.47;;;7.90;99.90;;;;;;4973763;28;20542;-64
2022/09/22 02:06:08;;;;;;;7.40;4.07;;;7.90;99.90;;;;;;4957329;28;20058;-63
2022/09/22 02:08:40;;;;;;;7.15;3.88;;;7.80;99.90;;;;;;4956293;28;20051;-64
2022/09/22 02:11:11;;;;;;;7.55;4.13;;;7.80;99.90;;;;;;4957000;28;20502;-65
2022/09/22 02:13:38;;;;;;;;;;;7.80;99.90;;;;;;4974807;28;20055;-65
2022/09/22 02:16:07;;;;;;;7.22;4.32;;;7.80;99.90;;;;;;4973654;28;19926;-64
2022/09/22 02:18:41;;;;;;;5.40;3.72;;;7.80;99.90;;;;;;4974027;28;20467;-64
2022/09/22 02:21:08;;;;;;;8.90;3.95;;;7.80;99.90;;;;;;4973551;28;20600;-64
2022/09/22 02:23:35;;;;;;;7.00;4.30;;;7.70;99.90;;;;;;4973827;28;20495;-65
2022/09/22 02:26:04;;;;;;;6.57;4.47;;;7.80;99.90;;;;;;4974164;28;20046;-64
2022/09/22 02:28:33;;;;;;;5.38;3.83;;;7.70;99.90;;;;;;4973532;28;20479;-64
2022/09/22 02:31:02;;;;;;;7.80;4.43;;;7.70;99.90;;;;;;4956737;28;20051;-64
2022/09/22 02:33:35;;;;;;;8.95;4.72;;;7.70;99.90;;;;;;4956419;28;20099;-64
2022/09/22 02:36:09;;;;;;;7.13;3.92;;;7.70;99.90;;;;;;4956140;28;20059;-65
2022/09/22 02:38:44;;;;;;;5.75;3.70;;;7.60;99.90;;;;;;4974098;28;20084;-65
2022/09/22 02:41:19;;;;;;;6.22;4.10;;;7.60;99.90;;;;;;4974271;28;20070;-65
2022/09/22 02:43:52;;;;;;;6.78;3.28;;;7.50;99.90;;;;;;4973318;28;20055;-65
2022/09/22 02:46:24;;;;;;;6.18;3.95;;;7.50;99.90;;;;;;4973828;28;20047;-65
2022/09/22 02:48:57;;;;;;;8.35;3.72;;;7.50;99.90;;;;;;4974146;28;20062;-65
2022/09/22 02:51:24;;;;;;;6.45;4.07;;;7.50;99.90;;;;;;4956586;28;20062;-64
2022/09/22 02:53:51;;;;;;;7.45;3.95;;;7.50;99.90;;;;;;4974016;28;20065;-64
2022/09/22 02:56:18;;;;;;;4.68;3.22;;;7.40;99.90;;;;;;4955980;28;20051;-64
2022/09/22 02:58:45;;;;;;;7.00;3.20;;;7.40;99.90;;;;;;4972879;28;20062;-65
2022/09/22 03:01:11;;;;;;;6.00;3.15;;;7.40;99.90;;;;;;4956663;28;20062;-65
2022/09/22 03:03:38;;;;;;;5.45;3.10;;;7.40;99.90;;;;;;4973409;28;20050;-64
2022/09/22 03:06:07;;;;;;;6.40;3.85;;;7.40;99.90;;;;;;4973705;28;20054;-64
2022/09/22 03:08:34;;;;;;;6.07;3.35;;;7.40;99.90;;;;;;4973538;28;20058;-64
2022/09/22 03:11:01;;;;;;;6.82;3.33;;;7.40;99.90;;;;;;4973259;28;20058;-64
2022/09/22 03:13:27;;;;;;;5.85;3.25;;;7.40;99.90;;;;;;4956308;28;20050;-64
2022/09/22 03:15:55;;;;;;;6.47;3.25;;;7.40;99.90;;;;;;4973877;28;20061;-64
2022/09/22 03:18:21;;;;;;;5.18;3.42;;;7.30;99.90;;;;;;4955427;28;20146;-63
2022/09/22 03:20:48;;;;;;;5.93;3.13;;;7.40;99.90;;;;;;4973667;28;20047;-65
2022/09/22 03:23:16;;;;;;;4.72;2.67;;;7.40;99.90;;;;;;4957046;28;20070;-64
2022/09/22 03:25:43;;;;;;;4.15;2.58;;;7.30;99.90;;;;;;4959409;28;20135;-65
2022/09/22 03:28:10;;;;;;;5.57;3.00;;;7.30;99.90;;;;;;4976668;28;20495;-65
2022/09/22 03:30:39;;;;;;;6.70;3.40;;;7.30;99.90;;;;;;4960314;28;20555;-64
2022/09/22 03:33:06;;;;;;;5.28;3.00;;;7.30;99.90;;;;;;4958912;28;20079;-63
2022/09/22 03:35:33;;;;;;;6.43;3.20;;;7.30;99.90;;;;;;4977247;28;20487;-64
2022/09/22 03:38:00;;;;;;;7.28;3.30;;;7.30;99.90;;;;;;4976832;28;20058;-65
2022/09/22 03:40:28;;;;;;;4.43;3.17;;;7.30;99.90;;;;;;4959358;28;20055;-64
2022/09/22 03:42:55;;;;;;;4.03;2.88;;;7.30;99.90;;;;;;4976871;28;20442;-63
2022/09/22 03:45:22;;;;;;;6.03;3.72;;;7.30;99.90;;;;;;4959362;28;20134;-63
2022/09/22 03:47:49;;;;;;;5.75;3.58;;;7.30;99.90;;;;;;4976418;28;20077;-64
2022/09/22 03:50:16;;;;;;;6.15;3.53;;;7.30;99.90;;;;;;4977012;28;20102;-65
2022/09/22 03:52:43;;;;;;;5.47;3.45;;;7.20;99.90;;;;;;4959037;28;20047;-64
2022/09/22 03:55:11;;;;;;;7.28;3.42;;;7.20;99.90;;;;;;4959283;28;20046;-64
2022/09/22 03:57:40;;;;;;;4.97;3.30;;;7.20;99.90;;;;;;4976766;28;20062;-64
2022/09/22 04:00:09;;;;;;;5.32;3.28;;;7.20;99.90;;;;;;4976181;28;20061;-64
2022/09/22 04:02:36;;;;;;;5.97;3.17;;;7.20;99.90;;;;;;4976814;28;20047;-63
2022/09/22 04:05:02;;;;;;;10.50;3.83;;;7.20;99.90;;;;;;4976640;28;20054;-63
2022/09/22 04:07:29;;;;;;;13.52;4.22;;;7.20;99.90;;;;;;4976012;28;20125;-64
2022/09/22 04:09:56;;;;;;;10.38;3.25;;;7.20;99.90;;;;;;4976354;28;20066;-63
2022/09/22 04:12:23;;;;;;;8.93;3.42;;;7.20;99.90;;;;;;4959475;28;20491;-63
2022/09/22 04:14:51;;;;;;;5.68;3.05;;;7.20;99.90;;;;;;4975618;28;20062;-64
2022/09/22 04:17:19;;;;;;;6.72;3.47;;;7.30;99.90;;;;;;4959123;28;20054;-64
2022/09/22 04:19:46;;;;;;;6.70;3.30;;;7.30;99.90;;;;;;4976389;28;20134;-64
2022/09/22 04:22:13;;;;;;;5.93;3.40;;;7.30;99.90;;;;;;4958116;28;20047;-63
2022/09/22 04:24:40;;;;;;;9.13;3.72;;;7.20;99.90;;;;;;4959196;28;20513;-65
2022/09/22 04:27:07;;;;;;;5.35;3.75;;;7.20;99.90;;;;;;4959101;28;20113;-64
2022/09/22 04:29:34;;;;;;;11.13;4.32;;;7.20;99.90;;;;;;4957541;28;20055;-65
2022/09/22 04:32:02;;;;;;;9.13;3.95;;;7.10;99.90;;;;;;4959163;28;20077;-64
2022/09/22 04:34:29;;;;;;;6.78;3.60;;;7.20;99.90;;;;;;4957933;28;20050;-63
2022/09/22 04:36:56;;;;;;;7.90;3.60;;;7.20;99.90;;;;;;4958515;28;20490;-64
2022/09/22 04:39:23;;;;;;;7.50;3.65;;;7.20;99.90;;;;;;4958800;28;20066;-65
2022/09/22 04:41:50;;;;;;;4.78;3.17;;;7.20;99.90;;;;;;4957998;28;20050;-63
2022/09/22 04:44:17;;;;;;;6.90;3.25;;;7.10;99.90;;;;;;4958152;28;20134;-63
2022/09/22 04:46:45;;;;;;;6.82;3.38;;;7.10;99.90;;;;;;4976029;28;20458;-62
2022/09/22 04:49:13;;;;;;;6.03;4.10;;;7.10;99.90;;;;;;4975153;28;20074;-63
2022/09/22 04:51:40;;;;;;;6.90;4.60;;;7.10;99.90;;;;;;4975592;28;20095;-63
2022/09/22 04:54:08;;;;;;;7.63;3.53;;;7.10;99.90;;;;;;4958577;28;20498;-63
2022/09/22 04:56:35;;;;;;;7.00;4.30;;;7.10;99.90;;;;;;4975298;28;20097;-63
2022/09/22 04:59:02;;;;;;;7.15;4.00;;;7.10;99.90;;;;;;4954344;29;20055;-63
2022/09/22 05:01:29;;;;;;;12.38;5.22;;;7.10;99.90;;;;;;4956367;29;20451;-65
2022/09/22 05:03:55;;;;;;;8.25;4.40;;;7.10;99.90;;;;;;4938249;29;20054;-64
2022/09/22 05:06:24;;;;;;;7.07;4.28;;;7.10;99.90;;;;;;4956210;29;20055;-65
2022/09/22 05:08:51;;;;;;;9.05;5.13;;;7.10;99.90;;;;;;4956131;29;20058;-64
2022/09/22 05:11:18;;;;;;;6.80;4.28;;;7.10;99.90;;;;;;4955177;29;20554;-64
2022/09/22 05:13:45;;;;;;;7.10;4.15;;;7.10;99.90;;;;;;4939287;29;20059;-64
2022/09/22 05:16:12;;;;;;;6.00;4.10;;;7.10;99.90;;;;;;4938975;29;20410;-65
2022/09/22 05:18:39;;;;;;;6.03;3.88;;;7.00;99.90;;;;;;4948283;28;20050;-65
2022/09/22 05:21:06;;;;;;;9.88;5.15;;;7.10;99.90;;;;;;4957743;28;20486;-63
2022/09/22 05:23:36;;;;;;;6.80;3.90;;;7.00;99.90;;;;;;4957823;28;20133;-66
2022/09/22 05:26:02;;;;;;;6.95;3.90;;;7.10;99.90;;;;;;4974271;28;20046;-64
2022/09/22 05:28:29;;;;;;;6.97;3.67;;;7.00;99.90;;;;;;4954498;29;20066;-63
2022/09/22 05:30:56;;;;;;;8.75;4.18;;;7.10;99.90;;;;;;4938047;29;20055;-64
2022/09/22 05:33:23;;;;;;;9.43;4.60;;;7.10;99.90;;;;;;4955519;29;20487;-65
2022/09/22 05:35:50;;;;;;;10.32;3.42;;;7.10;99.90;;;;;;4955930;29;20055;-64
2022/09/22 05:38:17;;;;;;;10.82;4.20;;;7.20;99.90;;;;;;4954826;29;20051;-65
2022/09/22 05:40:47;;;;;;;7.25;4.35;;;7.20;99.90;;;;;;4974056;28;20054;-64
2022/09/22 05:43:14;;;;;;;8.15;4.38;;;7.20;99.90;;;;;;4974415;28;20134;-65
2022/09/22 05:45:41;;;;;;;8.02;4.22;;;7.10;99.90;;;;;;4954977;28;20059;-65
2022/09/22 05:48:08;;;;;;;8.50;4.57;;;7.20;99.90;;;;;;4956037;28;20368;-64
2022/09/22 05:50:34;;;;;;;6.20;4.18;;;7.20;99.90;;;;;;4956386;28;20101;-64
2022/09/22 05:53:03;;;;;;;7.18;4.95;;;7.20;99.90;;;;;;4972780;28;20050;-64
2022/09/22 05:55:30;;;;;;;5.45;4.18;;;7.30;99.90;;;;;;4954173;29;20055;-64
2022/09/22 05:57:59;;;;;;;9.85;4.57;;;7.30;99.90;;;;;;4940204;28;20066;-63
2022/09/22 06:00:27;;;;;;;7.82;5.00;;;7.30;99.90;;;;;;4956058;28;20505;-65
2022/09/22 06:02:54;;;;;;;6.60;4.57;;;7.40;99.90;;;;;;4957106;28;20046;-65
2022/09/22 06:05:27;;;;;;;7.85;4.45;;;7.40;99.90;;;;;;4946320;28;20050;-63
2022/09/22 06:08:00;;;;;;;7.95;4.18;;;7.50;99.90;;;;;;4942669;28;20391;-63
2022/09/22 06:10:27;;;;;;;8.88;4.75;;;7.50;99.90;;;;;;4950179;28;20055;-64
2022/09/22 06:12:59;;;;;;;11.65;4.55;;;7.80;99.90;;;;;;4950722;28;20054;-65
2022/09/22 06:15:27;;;;;;;6.10;4.65;;;7.80;99.90;;;;;;4968164;28;20414;-64
2022/09/22 06:17:54;;;;;;;11.27;5.40;;;7.80;99.90;;;;;;4967695;28;20130;-63
2022/09/22 06:20:21;;;;;;;6.90;4.80;;;7.90;99.90;;;;;;4970942;28;20184;-63
2022/09/22 06:22:48;;;;;;;7.20;4.70;;;7.90;99.90;;;;;;4947302;28;20436;-63
2022/09/22 06:25:15;;;;;;;11.57;4.68;;;8.00;99.90;;;;;;4967164;28;20513;-64
2022/09/22 06:27:43;;;;;;;7.82;5.30;;;8.00;99.90;;;;;;4966297;28;20051;-64
2022/09/22 06:30:13;;;;;;;11.68;6.13;;;8.10;99.90;;;;;;4968450;28;20056;-63
2022/09/22 06:32:42;;;;;;;10.23;5.35;;;8.20;99.90;;;;;;4967752;28;20093;-63
2022/09/22 06:35:10;;;;;;;10.82;5.18;;;7.80;99.90;;;;;;4966556;28;20058;-62
2022/09/22 06:37:38;;;;;;;8.65;5.15;;;8.40;99.90;;;;;;4967819;28;20042;-65
2022/09/22 06:40:07;;;;;;;11.00;5.53;;;8.50;99.90;;;;;;4967571;28;20078;-64
2022/09/22 06:42:34;;;;;;;10.15;5.63;;;8.70;99.90;;;;;;4950885;28;20138;-64
2022/09/22 06:45:03;;;;;;;10.07;5.15;;;8.90;99.90;;;;;;4949639;28;20054;-63
2022/09/22 06:47:32;;;;;;;9.32;5.03;;;9.10;99.90;;;;;;4949156;28;20069;-63
2022/09/22 06:50:01;;;;;;;10.35;5.50;;;9.20;99.90;;;;;;4953503;28;20446;-65
2022/09/22 06:52:28;;;;;;;12.65;5.82;;;9.20;99.90;;;;;;4968041;28;20137;-64
2022/09/22 06:54:57;;;;;;;9.52;5.88;;;9.20;99.90;;;;;;4946667;28;20462;-64
2022/09/22 06:57:27;;;;;;;11.85;6.07;;;9.40;99.90;;;;;;4964108;28;20051;-65
2022/09/22 06:59:55;;;;;;;9.40;5.50;;;9.60;99.90;;;;;;4977674;28;20053;-64
2022/09/22 07:02:28;;;;;;;10.23;5.72;;;9.70;99.90;;;;;;4951562;28;20047;-64
2022/09/22 07:04:57;;;;;;;8.75;5.00;;;10.40;99.90;;;;;;4972225;28;20050;-65
2022/09/22 07:07:26;;;;;;;7.22;4.63;;;11.90;99.90;;;;;;4971520;28;20383;-64
2022/09/22 07:09:53;;;;;;;8.98;5.68;;;13.70;99.90;;;;;;4951926;28;20069;-65
2022/09/22 07:12:21;;;;;;;6.03;4.50;;;15.20;99.90;;;;;;4970707;28;20130;-65
2022/09/22 07:14:50;;;;;;;9.90;4.65;;;16.40;99.90;;;;;;4970134;28;20078;-63
2022/09/22 07:17:16;;;;;;;7.47;4.93;;;17.20;99.90;;;;;;4956558;28;20086;-65
2022/09/22 07:19:45;;;;;;;6.10;3.85;;;17.60;99.90;;;;;;4969546;28;20055;-65
2022/09/22 07:22:14;;;;;;;7.85;4.13;;;18.50;99.90;;;;;;4969109;28;20042;-65
2022/09/22 07:24:41;;;;;;;9.23;4.57;;;19.10;99.90;;;;;;4967206;28;20510;-64
2022/09/22 07:27:09;;;;;;;7.55;4.30;;;19.60;99.90;;;;;;4953208;28;20119;-64
2022/09/22 07:29:37;;;;;;;7.50;4.22;;;20.10;98.80;;;;;;4956616;28;20505;-64
2022/09/22 07:32:04;;;;;;;9.80;3.47;;;20.40;97.80;;;;;;4952004;28;20056;-65
2022/09/22 07:34:31;;;;;;;7.55;3.70;;;21.00;96.80;;;;;;4954342;28;20046;-65
2022/09/22 07:36:59;;;;;;;5.13;3.50;;;21.10;95.30;;;;;;4953402;28;20065;-65
2022/09/22 07:39:27;;;;;;;5.38;3.50;;;21.50;94.50;;;;;;4968125;28;20169;-65
2022/09/22 07:41:54;;;;;;;6.50;3.45;;;21.90;92.50;;;;;;4968177;28;20054;-65
2022/09/22 07:47:05;;;;;;;6.13;3.10;;;22.30;91.80;;;;;;4949697;28;20047;-65
2022/09/22 07:49:32;;;;;;;6.38;3.65;;;22.70;91.40;;;;;;4968688;28;20058;-65
2022/09/22 07:51:59;;;;;;;4.93;3.40;;;23.00;90.60;;;;;;4949238;28;20051;-65
2022/09/22 07:54:27;;;;;;;6.85;3.20;;;23.20;89.60;;;;;;4956027;28;20062;-65
2022/09/22 07:56:56;;;;;;;4.15;2.85;;;23.10;87.20;;;;;;4968209;28;20055;-66
2022/09/22 07:59:24;;;;;;;5.80;3.33;;;23.50;86.40;;;;;;4971380;28;20141;-66
2022/09/22 08:01:51;;;;;;;5.03;3.20;;;23.90;85.50;;;;;;4966332;28;20110;-65
2022/09/22 08:04:21;;;;;;;7.75;3.17;;;24.10;84.10;;;;;;4955993;28;20479;-65
2022/09/22 08:06:50;;;;;;;;;;;24.60;83.20;;;;;;4949834;28;20522;-66
2022/09/22 08:09:18;;;;;;;4.47;3.00;;;24.50;79.80;;;;;;4966654;28;19929;-64
2022/09/22 08:11:48;;;;;;;5.78;3.53;;;24.80;82.20;;;;;;4952825;28;20622;-65
2022/09/22 08:14:20;;;;;;;5.03;2.90;;;25.20;81.00;;;;;;4966613;28;20054;-65
2022/09/22 08:16:50;;;;;;;4.15;3.10;;;25.30;79.10;;;;;;4968893;28;20505;-65
2022/09/22 08:19:17;;;;;;;4.60;3.00;;;25.30;78.80;;;;;;4966860;28;20047;-66
2022/09/22 08:21:45;;;;;;;5.57;2.80;;;25.40;78.20;;;;;;4968144;28;20455;-66
2022/09/22 08:24:14;;;;;;;4.35;2.72;;;25.20;77.10;;;;;;4950283;28;20549;-66
2022/09/22 08:26:43;;;;;;;4.18;2.55;;;25.70;76.90;;;;;;4963943;28;20062;-65
2022/09/22 08:29:11;;;;;;;5.80;2.67;;;26.20;75.50;;;;;;4956428;28;20149;-66
2022/09/22 08:31:40;;;;;;;5.30;2.70;;;26.50;73.80;;;;;;4951243;28;20069;-66
2022/09/22 08:34:08;;;;;;;4.47;2.65;;;26.30;73.80;;;;;;4957148;28;20133;-66
2022/09/22 08:36:37;;;;;;;5.20;2.92;;;26.30;74.20;;;;;;4968591;28;20062;-65
2022/09/22 08:39:04;;;;;;;4.38;2.50;;;26.00;73.40;;;;;;4967735;28;20046;-65
2022/09/22 08:41:41;;;;;;;8.73;2.85;;;25.90;73.80;;;;;;4949121;28;20462;-65
2022/09/22 08:44:22;;;;;;;6.00;2.20;;;26.30;72.40;;;;;;4964345;28;20050;-66
2022/09/22 08:46:50;;;;;;;5.57;3.13;;;26.70;70.70;;;;;;4965942;28;20047;-65
2022/09/22 08:52:16;;;;;;;4.18;2.10;;;27.20;71.60;;;;;;4950024;28;20043;-65
2022/09/22 08:54:45;;;;;;;4.32;2.38;;;27.40;68.30;;;;;;4965278;28;20071;-65
2022/09/22 08:57:44;;;;;;;7.00;2.40;;;28.00;69.60;;;;;;4964316;28;20510;-66
2022/09/22 09:00:15;;;;;;;4.35;1.98;;;27.90;65.70;;;;;;4948671;28;20109;-66
2022/09/22 09:02:45;;;;;;;7.20;2.38;;;28.10;67.10;;;;;;4948568;28;20102;-66
2022/09/22 09:05:53;;;;;;;4.57;2.38;;;28.10;67.40;;;;;;4967425;28;20058;-65
2022/09/22 09:08:43;;;;;;;5.22;2.85;;;28.20;65.70;;;;;;4947498;28;20078;-66
2022/09/22 09:11:20;;;;;;;4.22;2.33;;;27.90;67.10;;;;;;4967406;28;20511;-66
2022/09/22 09:14:01;;;;;;;5.45;2.35;;;28.40;65.90;;;;;;4958011;28;20043;-65
2022/09/22 09:16:42;;;;;;;5.25;2.30;;;28.80;65.60;;;;;;4948819;28;20054;-66
2022/09/22 09:19:16;;;;;;;3.85;2.25;;;29.10;64.10;;;;;;4946939;28;20070;-65
2022/09/22 09:21:49;;;;;;;5.68;2.53;;;29.50;64.00;;;;;;4965554;28;20047;-66
2022/09/22 09:24:27;;;;;;;4.30;2.05;;;29.50;64.40;;;;;;4965870;28;20106;-66
2022/09/22 09:26:58;;;;;;;4.80;2.10;;;28.50;63.40;;;;;;4949940;28;20054;-65
2022/09/22 09:29:29;;;;;;;2.95;1.83;;;28.50;64.50;;;;;;4946329;29;20516;-66
2022/09/22 09:32:01;;;;;;;4.88;1.80;;;29.00;63.50;;;;;;4954636;28;20063;-65
2022/09/22 09:34:29;;;;;;;5.65;2.38;;;29.10;62.90;;;;;;4951648;28;20139;-65
2022/09/22 09:37:06;;;;;;;2.55;1.80;;;28.30;63.20;;;;;;4952218;29;20077;-65
2022/09/22 09:39:36;;;;;;;4.72;1.70;;;28.90;62.20;;;;;;4954069;28;20055;-65
2022/09/22 09:42:15;;;;;;;4.75;1.73;;;28.90;62.80;;;;;;4937164;29;20482;-65
2022/09/22 09:44:43;;;;;;;4.63;1.27;;;29.10;60.90;;;;;;4936082;29;20047;-65
2022/09/22 09:47:18;;;;;;;3.58;1.55;;;29.30;61.80;;;;;;4953972;28;20098;-66
2022/09/22 09:49:46;;;;;;;4.97;1.48;;;29.40;60.90;;;;;;4954366;28;20063;-66
2022/09/22 09:52:14;;;;;;;4.65;1.38;;;29.30;61.50;;;;;;4963964;28;20498;-65
2022/09/22 09:54:42;;;;;;;3.70;1.30;;;29.10;60.30;;;;;;4954051;28;20058;-65
2022/09/22 09:57:11;;;;;;;4.18;1.30;;;29.30;60.40;;;;;;4954357;28;20051;-66
2022/09/22 10:02:27;;;;;;;6.50;1.23;;;29.10;60.30;;;;;;4936809;28;20051;-66
2022/09/22 10:04:57;;;;;;;4.57;1.33;;;29.40;58.80;;;;;;4941300;28;20047;-65
2022/09/22 10:07:25;;;;;;;;;;;29.70;58.40;;;;;;4948587;28;20067;-65
2022/09/22 10:09:54;;;;;;;7.75;2.08;;;29.50;57.60;;;;;;4937439;29;19923;-65
2022/09/22 10:12:24;;;;;;;4.68;1.40;;;29.80;58.70;;;;;;4936029;28;20069;-65
2022/09/22 10:14:53;;;;;;;4.68;1.63;;;29.60;58.00;;;;;;4945524;28;20110;-65
2022/09/22 10:17:22;;;;;;;4.40;1.75;;;29.70;57.50;;;;;;4950390;29;20055;-65
2022/09/22 10:19:50;;;;;;;;;;;29.80;57.80;;;;;;4936148;29;20142;-66
2022/09/22 10:22:24;;;;;;;13.15;2.72;;;29.70;57.70;;;;;;4941903;29;20029;-64
2022/09/22 10:25:00;;;;;;;3.45;1.67;;;29.90;56.20;;;;;;4940816;28;20086;-65
2022/09/22 10:27:28;;;;;;;7.35;1.90;;;29.80;56.50;;;;;;4952447;28;20051;-65
2022/09/22 10:30:14;;;;;;;5.50;1.63;;;29.50;57.70;;;;;;4966786;28;20047;-66
2022/09/22 10:32:41;;;;;;;6.57;1.80;;;29.80;57.00;;;;;;4953748;28;20059;-66
2022/09/22 10:35:28;;;;;;;6.30;1.90;;;30.00;56.70;;;;;;4939313;28;20047;-66
2022/09/22 10:37:58;;;;;;;3.47;1.58;;;29.70;55.60;;;;;;4942651;28;20062;-67
2022/09/22 10:40:27;;;;;;;3.70;1.70;;;29.70;56.20;;;;;;4936977;28;20102;-66
2022/09/22 10:42:56;;;;;;;4.30;1.70;;;29.90;55.40;;;;;;4964846;28;20046;-65
2022/09/22 10:45:36;;;;;;;5.38;1.60;;;30.00;55.70;;;;;;4953558;28;20048;-65
2022/09/22 10:48:12;;;;;;;7.88;1.80;;;29.60;55.70;;;;;;4967614;28;20403;-65
2022/09/22 10:50:58;;;;;;;4.47;1.40;;;29.10;55.20;;;;;;4957416;28;20046;-67
2022/09/22 10:53:36;;;;;;;4.43;1.95;;;29.30;56.40;;;;;;4970446;28;20054;-65
2022/09/22 10:56:12;;;;;;;5.28;1.42;;;29.50;56.00;;;;;;4969409;28;20077;-64
2022/09/22 10:59:06;;;;;;;3.83;1.77;;;29.50;55.20;;;;;;4954010;28;20530;-65
2022/09/22 11:01:45;;;;;;;4.25;1.50;;;29.80;54.90;;;;;;4951396;28;20130;-66
2022/09/22 11:04:27;;;;;;;;;;;29.50;55.70;;;;;;4958643;28;20118;-66
2022/09/22 11:13:16;;;;;;;3.40;1.20;;;30.00;55.00;;;;;;4936968;28;20401;-68
2022/09/22 11:16:16;;;;;;;4.03;1.45;;;30.40;55.20;;;;;;4935570;29;20106;-65
2022/09/22 11:19:05;;;;;;;6.32;2.00;;;30.10;53.90;;;;;;4940113;28;20102;-65
2022/09/22 11:21:46;;;;;;;6.65;1.77;;;28.60;55.00;;;;;;4940776;29;20074;-65
2022/09/22 11:24:46;;;;;;;4.13;1.60;;;27.20;57.30;;;;;;4951836;28;20043;-64
2022/09/22 11:27:19;;;;;;;;;;;27.90;56.10;;;;;;4958099;28;20110;-67
2022/09/22 11:30:04;;;;;;;5.63;2.00;;;28.30;56.20;;;;;;4946517;29;19932;-66
2022/09/22 11:32:53;;;;;;;3.92;1.70;;;29.00;55.80;;;;;;4951657;28;20151;-65
2022/09/22 11:35:50;;;;;;;6.00;2.20;;;29.50;55.30;;;;;;4936056;29;20055;-66
2022/09/22 11:38:31;;;;;;;3.80;1.50;;;29.90;54.90;;;;;;4958275;28;20054;-65
2022/09/22 11:41:25;;;;;;;3.80;1.60;;;29.30;54.70;;;;;;4953118;28;20051;-66
2022/09/22 11:44:07;;;;;;;3.70;1.73;;;29.30;56.10;;;;;;4939590;28;20515;-65
2022/09/22 11:46:54;;;;;;;5.57;1.55;;;28.10;55.80;;;;;;4956414;28;20070;-65
2022/09/22 11:49:35;;;;;;;6.97;2.17;;;27.50;57.60;;;;;;4944512;28;20916;-66
2022/09/22 11:52:15;;;;;;;3.85;2.10;;;27.80;57.40;;;;;;4956158;28;20047;-66
2022/09/22 11:54:56;;;;;;;3.60;2.00;;;28.20;57.20;;;;;;4940437;28;20058;-66
2022/09/22 11:57:31;;;;;;;4.43;2.22;;;28.20;56.40;;;;;;4951050;28;20070;-66
2022/09/22 12:00:02;;;;;;;6.93;2.63;;;29.00;56.10;;;;;;4951911;29;20055;-66
2022/09/22 12:02:34;;;;;;;5.10;2.90;;;28.70;56.10;;;;;;4955951;28;20506;-65
2022/09/22 12:05:06;;;;;;;4.30;2.78;;;28.80;55.70;;;;;;4937527;28;20130;-65
2022/09/22 12:07:38;;;;;;;6.03;3.17;;;28.90;56.00;;;;;;4953856;28;20059;-66
2022/09/22 12:10:13;;;;;;;6.30;2.70;;;28.80;55.70;;;;;;4951201;28;20495;-65
2022/09/22 12:12:47;;;;;;;5.10;3.08;;;28.70;55.50;;;;;;4956099;28;20054;-65
2022/09/22 12:15:24;;;;;;;3.95;2.17;;;28.90;55.90;;;;;;4938615;28;20061;-66
2022/09/22 12:18:00;;;;;;;5.03;2.67;;;29.20;55.00;;;;;;4951187;28;20051;-66
2022/09/22 12:20:42;;;;;;;3.80;2.75;;;30.00;54.80;;;;;;4953500;29;20377;-65
2022/09/22 12:23:47;;;;;;;5.43;2.83;;;30.20;54.10;;;;;;4954775;29;20484;-66
2022/09/22 12:26:24;;;;;;;5.20;2.65;;;30.40;54.10;;;;;;4943993;28;20063;-66
2022/09/22 12:28:53;;;;;;;6.70;3.00;;;30.50;54.40;;;;;;4955097;28;20047;-67
2022/09/22 12:31:20;;;;;;;4.72;2.83;;;30.30;55.30;;;;;;4938823;28;20055;-66
2022/09/22 12:33:50;;;;;;;6.13;2.63;;;30.50;55.10;;;;;;4961466;28;20063;-66
2022/09/22 12:36:18;;;;;;;4.43;2.83;;;30.80;54.30;;;;;;4955435;28;20058;-66
2022/09/22 12:38:46;;;;;;;5.53;2.77;;;30.50;54.40;;;;;;4958288;28;20553;-65
2022/09/22 12:41:17;;;;;;;7.20;2.70;;;30.00;54.20;;;;;;4967652;28;20093;-66
2022/09/22 12:43:46;;;;;;;4.82;2.60;;;29.80;54.80;;;;;;4952950;28;20055;-66
2022/09/22 12:46:28;;;;;;;7.82;2.60;;;29.90;55.10;;;;;;4940616;28;20055;-66
2022/09/22 12:48:55;;;;;;;4.65;2.63;;;30.20;55.40;;;;;;4957654;28;20051;-66
2022/09/22 12:51:33;;;;;;;7.13;2.75;;;30.30;55.10;;;;;;4951227;28;20051;-65
2022/09/22 12:54:45;;;;;;;4.90;2.80;;;30.40;53.90;;;;;;4955939;28;20487;-66
2022/09/22 12:57:45;;;;;;;4.38;3.08;;;29.90;54.50;;;;;;4962768;28;20138;-66
2022/09/22 13:00:28;;;;;;;6.60;2.78;;;30.00;54.80;;;;;;4946546;28;20058;-66
2022/09/22 13:02:57;;;;;;;7.50;2.78;;;29.80;54.20;;;;;;4943509;28;20051;-66
2022/09/22 13:05:36;;;;;;;5.65;2.50;;;28.50;55.20;;;;;;4955275;28;20051;-66
2022/09/22 13:08:03;;;;;;;5.40;2.97;;;27.10;56.40;;;;;;4934685;28;20066;-65
2022/09/22 13:10:51;;;;;;;4.25;2.60;;;26.20;57.30;;;;;;4934959;29;20048;-66
2022/09/22 13:13:43;;;;;;;6.03;2.80;;;26.30;58.50;;;;;;4934668;29;20064;-65
2022/09/22 13:16:34;;;;;;;4.90;2.70;;;27.20;57.30;;;;;;4934502;28;20103;-65
2022/09/22 13:19:03;;;;;;;7.25;3.30;;;27.90;56.30;;;;;;4935782;29;20055;-65
2022/09/22 13:21:33;;;;;;;4.65;2.47;;;28.30;55.50;;;;;;4934701;29;20585;-65
2022/09/22 13:24:02;;;;;;;5.97;3.15;;;28.80;55.60;;;;;;4934482;29;20467;-65
2022/09/22 13:26:31;;;;;;;4.50;2.83;;;28.90;55.20;;;;;;4946932;28;20067;-65
2022/09/22 13:29:05;;;;;;;4.45;2.60;;;29.00;55.10;;;;;;4947909;29;20290;-67
2022/09/22 13:31:40;;;;;;;4.70;3.05;;;29.10;55.00;;;;;;4941476;29;20066;-66